West Boothbay Harbor, ME (04575)

11:23 EDT le 31 juillet 2015 (GMT -0400)
KMESOUTH28 | | Change Station
CLOSE
Current Station
Stations météorologiques personnelles
Location: Southport, ME
Altitude: 59 ft
Stations météo à proximité

Alt. 59 ft 43.84 °N, 69.66 °W | Updated 13 minutes ago

Ciel dégagé
Ciel dégagé
78.8 ° F
Paraît 81 ° F
N
1.1
Vent Variable Vent de NO

Aujourd'hui
Haut(e) -- | Bas -- ° F
--% Risque de précip.
Hier
Haut(e) -- | Bas -- ° F
Precip. -- pouce
5:25 AM 8:03 PM
Pleine lune, 100% visible
Pression 29.73 pouce
Visibilité 10.0 Miles terrestres
Nuages Ciel dégagé
indice de chaleur 81 ° F
Point de rosée 66 ° F
Humidité 64%
Précipitations 0.00 pouce
Profondeur de la couche neigeuse Non disponible.
UV 9 sur 12
Pollen 4.10 sur 12
Qualité de l'air Non disponible.
Flu Activity Non disponible.
METAR KIWI 311453Z AUTO VRB04KT 10SM CLR 28/17 A2973 RMK AO2 SLP068 T02780172 58008

More Conditions Fewer Conditions

Pression 29.73 pouce
Visibilité 10.0 Miles terrestres
Nuages Ciel dégagé
indice de chaleur 81 ° F
Point de rosée 66 ° F
Humidité 64%
Précipitations 0.00 pouce
Profondeur de la couche neigeuse Non disponible.
UV 9 sur 12
Pollen 4.10 sur 12
Qualité de l'air Non disponible.
Flu Activity Non disponible.
METAR KIWI 311453Z AUTO VRB04KT 10SM CLR 28/17 A2973 RMK AO2 SLP068 T02780172 58008

More Conditions Fewer Conditions

10-Day Weather Forecast

×

Almanac

Astronomie

Jul. 31, 2015 Lever Coucher
Temps réel
Crépuscule civil
Crépuscule nautique
Crépuscule astronomique
Lune
Durée de lumière visible
Longueur du jour
Tomorrow will be .
, % of the Moon is Illuminated

Extrêmes aujourd'hui

State Highs State Lows

Community

WunderPhotos

Upload Photos

1,842,670 Photos téléchargées !

WunderBlogs® & News

Nearby

Qualité de l'air

  Qualité de l'air Indice de la qualité de l'air Polluant
Not available.

Épaisseur de neige

Station Depth Altitude

Activité sismique

Ville Distance Mag. Time & Date
Minimum magnitude displayed is 2.5.

Températures des eaux côtières

Lieu Température

Stations

Stations météo à proximité

Emplacement de la station Température Refroidissement éolien Point de rosée Humidité Vent Precip. Alt. Mise à jour Type